createdAt,value
2019-05-09T00:00:33.574Z,0.87
2019-05-09T00:03:03.512Z,1.00
2019-05-09T00:05:33.476Z,1.10
2019-05-09T00:08:03.442Z,0.90
2019-05-09T00:10:39.363Z,0.90
2019-05-09T00:13:03.323Z,1.33
2019-05-09T00:15:33.244Z,1.00
2019-05-09T00:18:03.676Z,1.10
2019-05-09T00:20:33.276Z,1.10
2019-05-09T00:23:03.321Z,1.20
2019-05-09T00:25:33.871Z,1.33
2019-05-09T00:28:04.059Z,1.20
2019-05-09T00:30:50.420Z,1.23
2019-05-09T00:33:20.266Z,2.30
2019-05-09T00:35:48.462Z,2.00
2019-05-09T00:38:18.640Z,1.70
2019-05-09T00:40:57.767Z,1.97
2019-05-09T00:43:16.848Z,1.40
2019-05-09T00:46:04.268Z,1.50
2019-05-09T00:48:33.952Z,1.50
2019-05-09T00:51:03.459Z,1.57
2019-05-09T00:53:33.912Z,1.50
2019-05-09T00:56:04.152Z,1.40
2019-05-09T00:58:33.423Z,1.47
2019-05-09T01:01:04.070Z,1.57
2019-05-09T01:03:33.929Z,1.40
2019-05-09T01:06:04.252Z,1.50
2019-05-09T01:08:33.489Z,1.67
2019-05-09T01:11:11.872Z,1.77
2019-05-09T01:13:33.912Z,1.50
2019-05-09T01:16:04.164Z,1.60
2019-05-09T01:18:33.163Z,1.80
2019-05-09T01:21:03.712Z,1.57
2019-05-09T01:23:34.038Z,1.40
2019-05-09T01:26:03.761Z,1.47
2019-05-09T01:28:33.672Z,1.47
2019-05-09T01:31:03.779Z,1.40
2019-05-09T01:33:48.114Z,1.53
2019-05-09T01:36:16.304Z,1.67
2019-05-09T01:38:44.512Z,1.30
2019-05-09T01:41:26.705Z,1.50
2019-05-09T01:43:44.286Z,1.50
2019-05-09T01:46:14.460Z,1.63
2019-05-09T01:48:43.149Z,1.40
2019-05-09T01:51:13.724Z,1.70
2019-05-09T01:53:46.062Z,1.67
2019-05-09T01:56:14.411Z,1.40
2019-05-09T01:58:43.264Z,1.93
2019-05-09T02:01:13.503Z,1.40
2019-05-09T02:03:41.444Z,1.47
2019-05-09T02:06:09.645Z,1.50
2019-05-09T02:08:37.848Z,1.73
2019-05-09T02:11:13.480Z,1.50
2019-05-09T02:13:44.039Z,1.37
2019-05-09T02:16:14.113Z,1.50
2019-05-09T02:18:46.836Z,1.40
2019-05-09T02:21:15.046Z,1.47
2019-05-09T02:23:43.310Z,1.70
2019-05-09T02:26:13.584Z,1.70
2019-05-09T02:28:43.233Z,1.80
2019-05-09T02:31:15.697Z,1.73
2019-05-09T02:33:45.125Z,1.50
2019-05-09T02:36:11.565Z,1.60
2019-05-09T02:38:39.778Z,1.50
2019-05-09T02:41:08.713Z,1.53
2019-05-09T02:43:38.897Z,1.50
2019-05-09T02:46:09.680Z,1.67
2019-05-09T02:48:38.714Z,1.90
2019-05-09T02:51:09.243Z,1.70
2019-05-09T02:53:39.513Z,1.77
2019-05-09T02:56:09.250Z,1.70
2019-05-09T02:58:48.543Z,1.70
2019-05-09T03:01:18.941Z,1.60
2019-05-09T03:03:48.198Z,14.93
2019-05-09T03:06:19.644Z,16.17
2019-05-09T03:08:49.083Z,4.27
2019-05-09T03:11:18.744Z,2.00
2019-05-09T03:13:49.348Z,1.97
2019-05-09T03:16:19.159Z,1.90
2019-05-09T03:18:49.401Z,1.73
2019-05-09T03:21:24.693Z,1.80
2019-05-09T03:23:53.135Z,1.83
2019-05-09T03:26:22.988Z,1.73
2019-05-09T03:28:59.508Z,2.20
2019-05-09T03:31:29.985Z,2.10
2019-05-09T03:33:59.420Z,2.30
2019-05-09T03:36:28.223Z,2.10
2019-05-09T03:38:57.854Z,2.10
2019-05-09T03:41:28.158Z,1.90
2019-05-09T03:43:58.361Z,2.20
2019-05-09T03:46:38.379Z,1.60
2019-05-09T03:49:08.500Z,1.90
2019-05-09T03:51:37.911Z,1.87
2019-05-09T03:54:08.120Z,2.03
2019-05-09T03:56:38.108Z,2.33
2019-05-09T03:59:08.256Z,2.53
2019-05-09T04:01:38.170Z,2.50
2019-05-09T04:04:08.596Z,2.23
2019-05-09T04:06:39.026Z,2.40
2019-05-09T04:09:07.993Z,2.30
2019-05-09T04:11:38.138Z,2.67
2019-05-09T04:14:08.406Z,2.40
2019-05-09T04:16:38.073Z,2.60
2019-05-09T04:19:08.301Z,2.20
2019-05-09T04:21:38.282Z,2.00
2019-05-09T04:24:08.529Z,2.40
2019-05-09T04:26:44.638Z,2.20
2019-05-09T04:29:12.837Z,2.47
2019-05-09T04:31:41.035Z,2.40
2019-05-09T04:34:09.728Z,2.23
2019-05-09T04:36:38.420Z,2.30
2019-05-09T04:39:12.798Z,1.97
2019-05-09T04:41:39.105Z,1.90
2019-05-09T04:44:17.293Z,2.00
2019-05-09T04:46:41.733Z,1.97
2019-05-09T04:49:09.956Z,1.73
2019-05-09T04:51:39.337Z,2.60
2019-05-09T04:54:07.969Z,2.00
2019-05-09T04:56:38.242Z,1.93
2019-05-09T04:59:07.465Z,1.90
2019-05-09T05:01:53.174Z,2.30
2019-05-09T05:04:23.022Z,2.80
2019-05-09T05:06:51.239Z,2.10
2019-05-09T05:09:20.912Z,1.77
2019-05-09T05:11:49.362Z,1.90
2019-05-09T05:14:23.526Z,1.87
2019-05-09T05:16:53.836Z,1.70
2019-05-09T05:19:22.584Z,1.93
2019-05-09T05:21:50.802Z,2.67
2019-05-09T05:24:29.388Z,1.90
2019-05-09T05:26:58.004Z,1.70
2019-05-09T05:29:28.192Z,1.83
2019-05-09T05:31:58.115Z,2.03
2019-05-09T05:34:31.160Z,2.40
2019-05-09T05:36:59.348Z,1.67
2019-05-09T05:39:28.329Z,2.00
2019-05-09T05:41:57.731Z,2.13
2019-05-09T05:44:28.114Z,1.47
2019-05-09T05:47:00.316Z,1.43
2019-05-09T05:49:30.082Z,1.87
2019-05-09T05:51:58.281Z,1.83
2019-05-09T05:54:27.708Z,1.63
2019-05-09T05:56:57.835Z,1.70
2019-05-09T05:59:28.333Z,1.60
2019-05-09T06:01:58.316Z,1.53
2019-05-09T06:04:27.571Z,1.40
2019-05-09T06:06:58.625Z,1.40
2019-05-09T06:09:28.015Z,1.50
2019-05-09T06:11:57.782Z,1.40
2019-05-09T06:14:28.405Z,1.40
2019-05-09T06:16:58.516Z,1.50
2019-05-09T06:19:28.409Z,1.40
2019-05-09T06:21:57.396Z,1.57
2019-05-09T06:24:28.035Z,3.50
2019-05-09T06:26:55.787Z,2.17
2019-05-09T06:29:24.035Z,1.57
2019-05-09T06:31:52.238Z,2.17
2019-05-09T06:34:20.452Z,1.60
2019-05-09T06:36:49.160Z,1.60
2019-05-09T06:39:18.002Z,1.97
2019-05-09T06:41:48.331Z,2.17
2019-05-09T06:44:20.927Z,2.10
2019-05-09T06:46:58.614Z,2.03
2019-05-09T06:49:32.058Z,2.20
2019-05-09T06:52:00.394Z,2.00
2019-05-09T06:54:28.628Z,1.83
2019-05-09T06:56:58.491Z,2.27
2019-05-09T06:59:28.369Z,2.30
2019-05-09T07:01:58.409Z,2.10
2019-05-09T07:04:43.404Z,2.40
2019-05-09T07:07:13.240Z,2.10
2019-05-09T07:09:49.081Z,2.17
2019-05-09T07:12:18.169Z,2.27
2019-05-09T07:14:48.621Z,2.17
2019-05-09T07:17:18.338Z,2.57
2019-05-09T07:19:48.848Z,2.60
2019-05-09T07:22:18.657Z,2.70
2019-05-09T07:24:48.513Z,2.20
2019-05-09T07:27:17.933Z,2.17
2019-05-09T07:29:48.126Z,2.10
2019-05-09T07:32:23.997Z,3.07
2019-05-09T07:35:08.630Z,1.60
2019-05-09T07:37:37.854Z,1.73
2019-05-09T07:40:08.439Z,2.13
2019-05-09T07:42:38.895Z,1.63
2019-05-09T07:45:08.886Z,2.00
2019-05-09T07:47:38.542Z,2.00
2019-05-09T07:50:08.562Z,1.90
2019-05-09T07:52:38.706Z,1.90
2019-05-09T07:55:08.687Z,2.17
2019-05-09T07:57:45.077Z,2.00
2019-05-09T08:00:07.860Z,2.10
2019-05-09T08:02:38.482Z,1.87
2019-05-09T08:05:08.506Z,2.17
2019-05-09T08:07:38.191Z,1.60
2019-05-09T08:10:08.821Z,2.23
2019-05-09T08:12:38.730Z,1.67
2019-05-09T08:15:13.876Z,1.77
2019-05-09T08:17:38.153Z,2.37
2019-05-09T08:20:08.037Z,2.50
2019-05-09T08:22:40.947Z,2.40
2019-05-09T08:25:08.307Z,2.90
2019-05-09T08:27:37.798Z,3.00
2019-05-09T08:30:08.919Z,3.37
2019-05-09T08:32:37.954Z,3.37
2019-05-09T08:35:08.297Z,3.03
2019-05-09T08:37:38.832Z,3.40
2019-05-09T08:40:07.948Z,3.93
2019-05-09T08:42:37.850Z,3.90
2019-05-09T08:45:09.763Z,4.13
2019-05-09T08:47:38.073Z,4.07
2019-05-09T08:50:08.374Z,3.80
2019-05-09T08:52:37.622Z,3.73
2019-05-09T08:55:08.107Z,3.80
2019-05-09T08:57:37.543Z,3.67
2019-05-09T09:00:08.183Z,4.03
2019-05-09T09:02:37.645Z,3.50
2019-05-09T09:05:08.655Z,3.40
2019-05-09T09:07:38.051Z,3.93
2019-05-09T09:10:08.414Z,3.97
2019-05-09T09:12:38.388Z,3.30
2019-05-09T09:15:07.888Z,2.97
2019-05-09T09:17:38.443Z,3.10
2019-05-09T09:20:07.809Z,3.13
2019-05-09T09:22:37.620Z,2.40
2019-05-09T09:25:07.661Z,2.90
2019-05-09T09:27:38.044Z,2.77
2019-05-09T09:30:20.009Z,2.90
2019-05-09T09:32:38.794Z,2.57
2019-05-09T09:35:08.053Z,2.60
2019-05-09T09:37:47.682Z,2.70
2019-05-09T09:40:08.639Z,2.80
2019-05-09T09:42:39.675Z,2.70
2019-05-09T09:45:07.865Z,2.73
2019-05-09T09:47:39.323Z,2.20
2019-05-09T09:50:08.637Z,2.10
2019-05-09T09:52:38.512Z,2.20
2019-05-09T09:55:08.980Z,2.47
2019-05-09T09:57:37.747Z,2.63
2019-05-09T10:00:20.177Z,3.07
2019-05-09T10:02:48.913Z,2.40
2019-05-09T10:05:18.341Z,2.47
2019-05-09T10:07:47.689Z,2.67
2019-05-09T10:10:33.833Z,2.40
2019-05-09T10:13:03.999Z,2.40
2019-05-09T10:15:33.673Z,2.10
2019-05-09T10:18:03.674Z,2.30
2019-05-09T10:20:33.559Z,2.37
2019-05-09T10:23:11.022Z,2.23
2019-05-09T10:25:31.709Z,2.20
2019-05-09T10:28:00.014Z,2.10
2019-05-09T10:30:33.657Z,2.30
2019-05-09T10:33:01.877Z,2.07
2019-05-09T10:35:30.093Z,2.10
2019-05-09T10:37:59.025Z,2.10
2019-05-09T10:40:28.144Z,2.30
2019-05-09T10:43:10.488Z,2.73
2019-05-09T10:45:57.854Z,2.20
2019-05-09T10:48:28.291Z,2.90
2019-05-09T10:51:03.593Z,2.30
2019-05-09T10:53:28.298Z,2.43
2019-05-09T10:55:55.998Z,2.50
2019-05-09T10:58:24.211Z,2.70
2019-05-09T11:00:52.428Z,2.87
2019-05-09T11:03:20.648Z,2.90
2019-05-09T11:05:48.858Z,2.87
2019-05-09T11:08:18.458Z,2.93
2019-05-09T11:10:47.527Z,2.60
2019-05-09T11:13:18.133Z,2.97
2019-05-09T11:15:47.968Z,2.57
2019-05-09T11:18:18.366Z,2.60
2019-05-09T11:20:46.116Z,2.40
2019-05-09T11:23:15.619Z,2.17
2019-05-09T11:25:44.114Z,2.30
2019-05-09T11:28:15.049Z,2.00
2019-05-09T11:30:42.497Z,2.50
2019-05-09T11:33:10.711Z,2.10
2019-05-09T11:35:38.911Z,2.03
2019-05-09T11:38:08.356Z,2.00
2019-05-09T11:40:37.835Z,2.20
2019-05-09T11:43:06.265Z,2.23
2019-05-09T11:45:34.489Z,2.57
2019-05-09T11:48:02.922Z,1.90
2019-05-09T11:50:31.135Z,2.40
2019-05-09T11:53:00.128Z,2.30
2019-05-09T11:55:35.443Z,2.43
2019-05-09T11:57:59.126Z,2.50
2019-05-09T12:00:29.465Z,2.37
2019-05-09T12:02:58.364Z,2.80
2019-05-09T12:05:28.827Z,2.23
2019-05-09T12:07:58.203Z,2.53
2019-05-09T12:10:28.515Z,2.40
2019-05-09T12:12:57.622Z,2.40
2019-05-09T12:15:28.832Z,2.80
2019-05-09T12:18:01.680Z,2.10
2019-05-09T12:20:27.740Z,2.03
2019-05-09T12:22:58.418Z,1.90
2019-05-09T12:25:28.089Z,2.07
2019-05-09T12:27:58.196Z,2.17
2019-05-09T12:30:28.298Z,1.50
2019-05-09T12:32:58.610Z,1.90
2019-05-09T12:35:26.364Z,2.00
2019-05-09T12:37:54.837Z,2.07
2019-05-09T12:40:23.041Z,2.00
2019-05-09T12:42:51.265Z,1.80
2019-05-09T12:45:19.766Z,1.70
2019-05-09T12:47:48.248Z,1.73
2019-05-09T12:50:18.645Z,1.77
2019-05-09T12:52:48.744Z,1.77
2019-05-09T12:55:17.855Z,3.47
2019-05-09T12:57:48.670Z,1.77
2019-05-09T13:00:18.699Z,1.80
2019-05-09T13:02:47.093Z,1.37
2019-05-09T13:05:15.295Z,1.40
2019-05-09T13:07:43.500Z,1.60
2019-05-09T13:10:13.389Z,1.73
2019-05-09T13:12:41.611Z,1.90
2019-05-09T13:15:09.873Z,2.17
2019-05-09T13:17:43.248Z,2.40
2019-05-09T13:20:12.378Z,2.40
2019-05-09T13:22:40.612Z,2.27
2019-05-09T13:25:09.743Z,2.17
2019-05-09T13:27:38.937Z,2.20
2019-05-09T13:30:08.375Z,1.93
2019-05-09T13:32:37.496Z,1.97
2019-05-09T13:35:06.161Z,2.37
2019-05-09T13:37:34.358Z,2.47
2019-05-09T13:40:02.573Z,2.60
2019-05-09T13:42:30.784Z,2.50
2019-05-09T13:44:59.279Z,2.50
2019-05-09T13:47:28.133Z,2.60
2019-05-09T13:49:58.921Z,2.27
2019-05-09T13:52:27.380Z,2.70
2019-05-09T13:54:55.904Z,3.40
2019-05-09T13:57:24.345Z,2.93
2019-05-09T13:59:52.845Z,2.63
2019-05-09T14:02:21.040Z,2.57
2019-05-09T14:04:49.264Z,2.90
2019-05-09T14:07:19.296Z,3.37
2019-05-09T14:09:48.410Z,2.80
2019-05-09T14:12:17.553Z,4.30
2019-05-09T14:14:46.269Z,3.10
2019-05-09T14:17:14.560Z,3.53
2019-05-09T14:19:46.768Z,4.13
2019-05-09T14:22:12.912Z,3.43
2019-05-09T14:24:41.116Z,4.07
2019-05-09T14:27:09.313Z,4.20
2019-05-09T14:29:38.364Z,4.63
2019-05-09T14:32:06.822Z,5.43
2019-05-09T14:34:37.646Z,5.67
2019-05-09T14:37:05.269Z,5.97
2019-05-09T14:39:33.485Z,5.20
2019-05-09T14:42:01.678Z,3.80
2019-05-09T14:44:30.110Z,2.70
2019-05-09T14:46:58.535Z,2.03
2019-05-09T14:49:39.618Z,2.80
2019-05-09T14:51:57.920Z,2.37
2019-05-09T14:54:28.654Z,2.60
2019-05-09T14:56:58.365Z,3.17
2019-05-09T14:59:28.394Z,2.70
2019-05-09T15:01:58.900Z,2.30
2019-05-09T15:04:27.848Z,2.50
2019-05-09T15:06:57.859Z,3.10
2019-05-09T15:09:28.441Z,4.80
2019-05-09T15:11:58.492Z,1.90
2019-05-09T15:14:28.727Z,1.90
2019-05-09T15:16:57.513Z,1.70
2019-05-09T15:19:28.559Z,1.90
2019-05-09T15:21:57.875Z,1.47
2019-05-09T15:24:25.745Z,1.70
2019-05-09T15:26:53.967Z,2.77
2019-05-09T15:29:23.153Z,2.50
2019-05-09T15:31:54.428Z,1.60
2019-05-09T15:34:21.465Z,1.20
2019-05-09T15:36:49.674Z,0.80
2019-05-09T15:39:18.521Z,1.00
2019-05-09T15:41:47.894Z,0.90
2019-05-09T15:44:18.658Z,0.70
2019-05-09T15:46:53.927Z,0.60
2019-05-09T15:49:22.466Z,0.70
2019-05-09T15:51:50.928Z,0.80
2019-05-09T15:54:19.405Z,0.87
2019-05-09T15:56:48.429Z,0.80
2019-05-09T15:59:18.120Z,0.80
2019-05-09T16:01:49.257Z,1.00
2019-05-09T16:04:17.703Z,0.90
2019-05-09T16:06:50.341Z,0.83
2019-05-09T16:09:18.041Z,0.80
2019-05-09T16:11:48.197Z,0.97
2019-05-09T16:14:18.471Z,0.80
2019-05-09T16:16:47.855Z,1.00
2019-05-09T16:19:16.501Z,0.90
2019-05-09T16:21:44.801Z,0.60
2019-05-09T16:24:13.002Z,0.70
2019-05-09T16:26:41.245Z,0.70
2019-05-09T16:29:09.650Z,0.80
2019-05-09T16:31:38.719Z,0.77
2019-05-09T16:34:09.386Z,2.20
2019-05-09T16:36:38.992Z,1.53
2019-05-09T16:39:07.472Z,0.80
2019-05-09T16:41:38.496Z,0.80
2019-05-09T16:44:07.714Z,1.00
2019-05-09T16:46:37.586Z,0.90
2019-05-09T16:49:11.388Z,0.70
2019-05-09T16:51:40.211Z,1.10
2019-05-09T16:54:07.403Z,1.23
2019-05-09T16:56:38.250Z,1.00
2019-05-09T16:59:08.065Z,0.80
2019-05-09T17:01:39.452Z,0.70
2019-05-09T17:04:08.174Z,0.73
2019-05-09T17:06:38.122Z,0.70
2019-05-09T17:09:08.520Z,0.77
2019-05-09T17:11:37.789Z,0.90
2019-05-09T17:14:08.226Z,0.83
2019-05-09T17:16:37.660Z,1.20
2019-05-09T17:19:06.039Z,1.00
2019-05-09T17:21:42.009Z,0.90
2019-05-09T17:24:14.572Z,0.97
2019-05-09T17:26:42.771Z,1.40
2019-05-09T17:29:10.974Z,0.83
2019-05-09T17:31:39.433Z,1.00
2019-05-09T17:34:07.632Z,1.00
2019-05-09T17:36:38.304Z,0.87
2019-05-09T17:39:07.922Z,1.07
2019-05-09T17:41:37.870Z,0.80
2019-05-09T17:44:07.678Z,0.90
2019-05-09T17:46:38.283Z,1.37
2019-05-09T17:49:08.095Z,1.20
2019-05-09T17:51:36.429Z,0.90
2019-05-09T17:54:04.756Z,0.80
2019-05-09T17:56:32.953Z,0.80
2019-05-09T17:59:01.162Z,1.20
2019-05-09T18:01:29.369Z,1.20
2019-05-09T18:03:59.110Z,0.83
2019-05-09T18:06:28.205Z,1.00
2019-05-09T18:08:57.614Z,1.00
2019-05-09T18:11:25.957Z,0.90
2019-05-09T18:13:54.276Z,0.97
2019-05-09T18:16:22.482Z,1.20
2019-05-09T18:18:51.589Z,1.30
2019-05-09T18:21:19.799Z,1.17
2019-05-09T18:23:48.078Z,1.30
2019-05-09T18:26:18.459Z,1.10
2019-05-09T18:28:47.911Z,1.10
2019-05-09T18:31:16.337Z,1.20
2019-05-09T18:33:47.608Z,1.20
2019-05-09T18:36:15.976Z,1.70
2019-05-09T18:38:44.215Z,1.00
2019-05-09T18:41:12.406Z,1.37
2019-05-09T18:43:40.629Z,1.20
2019-05-09T18:46:08.921Z,1.70
2019-05-09T18:48:38.275Z,1.40
2019-05-09T18:51:06.729Z,1.03
2019-05-09T18:53:35.016Z,1.10
2019-05-09T18:56:03.221Z,1.40
2019-05-09T18:58:31.453Z,1.20
2019-05-09T19:00:59.656Z,1.30
2019-05-09T19:03:27.925Z,2.23
2019-05-09T19:05:56.131Z,3.30
2019-05-09T19:08:24.345Z,2.00
2019-05-09T19:10:52.618Z,2.50
2019-05-09T19:13:20.953Z,2.77
2019-05-09T19:16:03.057Z,2.00
2019-05-09T19:18:35.864Z,2.07
2019-05-09T19:21:05.713Z,1.80
2019-05-09T19:23:33.921Z,2.10
2019-05-09T19:26:04.059Z,2.40
2019-05-09T19:28:32.290Z,2.20
2019-05-09T19:31:00.705Z,2.10
2019-05-09T19:33:28.941Z,1.87
2019-05-09T19:35:57.136Z,2.50
2019-05-09T19:38:25.765Z,3.90
2019-05-09T19:40:53.979Z,2.60
2019-05-09T19:43:22.190Z,2.20
2019-05-09T19:45:50.399Z,2.33
2019-05-09T19:48:18.601Z,1.73
2019-05-09T19:50:46.823Z,1.70
2019-05-09T19:53:15.105Z,1.70
2019-05-09T19:55:43.726Z,2.00
2019-05-09T19:58:11.903Z,1.60
2019-05-09T20:00:40.310Z,1.43
2019-05-09T20:03:08.521Z,17.43
2019-05-09T20:05:36.840Z,21.33
2019-05-09T20:08:05.117Z,4.40
2019-05-09T20:10:51.447Z,2.70
2019-05-09T20:13:24.201Z,1.90
2019-05-09T20:15:52.411Z,2.40
2019-05-09T20:18:20.618Z,2.27
2019-05-09T20:20:48.867Z,1.90
2019-05-09T20:23:17.148Z,1.90
2019-05-09T20:25:45.391Z,1.80
2019-05-09T20:28:13.941Z,1.90
2019-05-09T20:30:42.208Z,1.67
2019-05-09T20:33:10.466Z,2.23
2019-05-09T20:35:39.075Z,1.60
2019-05-09T20:38:07.699Z,1.20
2019-05-09T20:40:36.237Z,1.10
2019-05-09T20:43:04.710Z,1.07
2019-05-09T20:45:33.097Z,1.27
2019-05-09T20:48:01.553Z,1.03
2019-05-09T20:50:29.952Z,1.20
2019-05-09T20:53:09.149Z,1.20
2019-05-09T20:55:28.726Z,1.07
2019-05-09T20:57:57.212Z,1.00
2019-05-09T21:00:25.885Z,0.80
2019-05-09T21:02:54.349Z,1.00
2019-05-09T21:05:22.779Z,1.00
2019-05-09T21:07:51.220Z,1.03
2019-05-09T21:10:19.607Z,1.00
2019-05-09T21:12:48.013Z,1.20
2019-05-09T21:15:16.400Z,1.00
2019-05-09T21:17:44.794Z,1.10
2019-05-09T21:20:13.248Z,1.00
2019-05-09T21:22:41.656Z,1.10
2019-05-09T21:25:10.109Z,1.20
2019-05-09T21:27:38.615Z,1.20
2019-05-09T21:30:07.334Z,1.03
2019-05-09T21:32:35.780Z,1.03
2019-05-09T21:35:05.021Z,0.90
2019-05-09T21:37:33.510Z,1.10
2019-05-09T21:40:01.765Z,1.27
2019-05-09T21:42:29.991Z,1.00
2019-05-09T21:44:58.191Z,1.20
2019-05-09T21:47:26.403Z,1.20
2019-05-09T21:49:54.607Z,1.27
2019-05-09T21:52:22.828Z,1.50
2019-05-09T21:54:51.036Z,1.57
2019-05-09T21:57:19.279Z,1.67
2019-05-09T21:59:48.531Z,1.70
2019-05-09T22:02:16.916Z,1.53
2019-05-09T22:04:45.124Z,1.90
2019-05-09T22:07:13.332Z,1.60
2019-05-09T22:09:41.536Z,1.50
2019-05-09T22:12:09.733Z,1.60
2019-05-09T22:14:37.951Z,1.50
2019-05-09T22:17:07.782Z,1.37
2019-05-09T22:19:36.349Z,1.43
2019-05-09T22:22:04.549Z,1.70
2019-05-09T22:24:32.750Z,1.70
2019-05-09T22:27:00.950Z,1.80
2019-05-09T22:29:29.200Z,1.77
2019-05-09T22:31:57.416Z,2.57
2019-05-09T22:34:25.683Z,2.00
2019-05-09T22:36:53.921Z,1.60
2019-05-09T22:39:22.478Z,2.00
2019-05-09T22:41:50.686Z,1.87
2019-05-09T22:44:18.875Z,1.85
2019-05-09T22:46:47.086Z,1.70
2019-05-09T22:49:15.292Z,1.90
2019-05-09T22:51:43.501Z,1.43
2019-05-09T22:54:13.205Z,1.83
2019-05-09T22:56:41.598Z,2.07
2019-05-09T22:59:09.804Z,2.10
2019-05-09T23:01:38.080Z,3.50
2019-05-09T23:04:06.329Z,2.97
2019-05-09T23:06:34.537Z,2.03
2019-05-09T23:09:04.784Z,2.37
2019-05-09T23:11:32.982Z,2.20
2019-05-09T23:14:01.195Z,1.83
2019-05-09T23:16:31.037Z,2.00
2019-05-09T23:18:59.242Z,2.10
2019-05-09T23:21:29.090Z,2.20
2019-05-09T23:24:01.726Z,2.30
2019-05-09T23:26:30.153Z,2.33
2019-05-09T23:28:58.380Z,1.90
2019-05-09T23:31:31.248Z,1.83
2019-05-09T23:33:59.453Z,2.10
2019-05-09T23:36:27.967Z,1.50
2019-05-09T23:39:10.062Z,1.70
2019-05-09T23:41:38.259Z,1.83
2019-05-09T23:44:06.448Z,2.07
2019-05-09T23:46:34.666Z,1.83
2019-05-09T23:49:02.860Z,1.80
2019-05-09T23:51:46.624Z,2.03
2019-05-09T23:54:45.147Z,1.80
2019-05-09T23:57:22.393Z,1.80
